SWR45 LSZH-EDDP
Flight info
| Callsign | SWR45 |
|---|---|
| Flight time | N/A |
| Altitude | 38000 |
| Route | DEGES Z1 ETAGO DCT TIKNI/N0450F370 T279 TAMEB T955 GOXLI GOXLI1V |
| Aircraft | A333/H-SDE3GHIJ2J3J5M1RVWXY/LB2D1 |
Departure
| Time | 2026-04-26 10:50 |
|---|---|
| Airport | Zürich Airport (LSZH) |
Arrival
| Time | N/A |
|---|---|
| Airport | Leipzig/Halle Airport (EDDP) |
| Time | Latitude | Longitude | Altitude | Speed | Heading |
|---|---|---|---|---|---|
| 2026-04-26 10:20 | 47.46039 | 8.55643 | 1411 ft | 0 kts | 6° |
| 2026-04-26 10:37 | 47.46035 | 8.55643 | 1413 ft | 2 kts | 6° |
| 2026-04-26 10:37 | 47.46019 | 8.55640 | 1406 ft | 2 kts | 8° |
| 2026-04-26 10:37 | 47.46003 | 8.55635 | 1410 ft | 2 kts | 11° |
| 2026-04-26 10:37 | 47.45987 | 8.55630 | 1411 ft | 2 kts | 17° |
| 2026-04-26 10:38 | 47.45972 | 8.55621 | 1413 ft | 2 kts | 33° |
| 2026-04-26 10:38 | 47.45960 | 8.55604 | 1412 ft | 2 kts | 78° |
| 2026-04-26 10:38 | 47.45959 | 8.55587 | 1409 ft | 1 kts | 95° |
| 2026-04-26 10:38 | 47.45959 | 8.55586 | 1409 ft | 1 kts | 96° |
| 2026-04-26 10:39 | 47.45959 | 8.55598 | 1412 ft | 2 kts | 96° |
| 2026-04-26 10:39 | 47.45957 | 8.55622 | 1413 ft | 3 kts | 96° |
| 2026-04-26 10:39 | 47.45954 | 8.55658 | 1406 ft | 4 kts | 96° |
| 2026-04-26 10:39 | 47.45954 | 8.55659 | 1406 ft | 0 kts | 96° |
| 2026-04-26 10:41 | 47.45954 | 8.55660 | 1406 ft | 0 kts | 96° |
| 2026-04-26 10:42 | 47.45953 | 8.55674 | 1408 ft | 7 kts | 96° |
| 2026-04-26 10:42 | 47.45942 | 8.55811 | 1408 ft | 15 kts | 96° |
| 2026-04-26 10:42 | 47.45930 | 8.55971 | 1416 ft | 16 kts | 96° |
| 2026-04-26 10:42 | 47.45921 | 8.56130 | 1419 ft | 15 kts | 96° |
| 2026-04-26 10:43 | 47.45909 | 8.56285 | 1417 ft | 15 kts | 97° |
| 2026-04-26 10:43 | 47.45885 | 8.56422 | 1426 ft | 12 kts | 126° |
| 2026-04-26 10:43 | 47.45830 | 8.56505 | 1426 ft | 12 kts | 137° |
| 2026-04-26 10:43 | 47.45796 | 8.56623 | 1427 ft | 14 kts | 98° |
| 2026-04-26 10:44 | 47.45785 | 8.56766 | 1424 ft | 14 kts | 96° |
| 2026-04-26 10:44 | 47.45775 | 8.56909 | 1427 ft | 14 kts | 95° |
| 2026-04-26 10:44 | 47.45756 | 8.56999 | 1428 ft | 0 kts | 128° |
| 2026-04-26 10:47 | 47.45729 | 8.57024 | 1429 ft | 8 kts | 163° |
| 2026-04-26 10:47 | 47.45668 | 8.57003 | 1428 ft | 9 kts | 229° |
| 2026-04-26 10:48 | 47.45666 | 8.56946 | 1428 ft | 10 kts | 277° |
| 2026-04-26 10:48 | 47.45668 | 8.56927 | 1427 ft | 0 kts | 277° |
| 2026-04-26 10:49 | 47.45668 | 8.56926 | 1427 ft | 0 kts | 277° |
| 2026-04-26 10:49 | 47.45689 | 8.56672 | 1427 ft | 63 kts | 276° |
| 2026-04-26 10:49 | 47.45762 | 8.55642 | 1412 ft | 137 kts | 276° |
| 2026-04-26 10:49 | 47.45885 | 8.53976 | 1713 ft | 178 kts | 277° |
| 2026-04-26 10:50 | 47.46016 | 8.52054 | 2452 ft | 199 kts | 277° |
| 2026-04-26 10:50 | 47.46096 | 8.50622 | 3000 ft | 214 kts | 277° |
| 2026-04-26 10:50 | 47.46089 | 8.47550 | 3976 ft | 244 kts | 256° |
| 2026-04-26 10:50 | 47.45146 | 8.45346 | 4463 ft | 268 kts | 221° |
| 2026-04-26 10:51 | 47.43719 | 8.43527 | 5424 ft | 274 kts | 220° |
| 2026-04-26 10:51 | 47.42288 | 8.38438 | 7650 ft | 276 kts | 264° |
| 2026-04-26 10:51 | 47.41798 | 8.35693 | 8702 ft | 281 kts | 240° |
| 2026-04-26 10:52 | 47.40420 | 8.33662 | 9704 ft | 286 kts | 208° |
| 2026-04-26 10:52 | 47.38477 | 8.32959 | 10552 ft | 296 kts | 179° |
| 2026-04-26 10:52 | 47.36430 | 8.33774 | 10963 ft | 320 kts | 150° |
| 2026-04-26 10:52 | 47.34756 | 8.36071 | 11342 ft | 342 kts | 122° |
| 2026-04-26 10:53 | 47.33916 | 8.39400 | 11985 ft | 353 kts | 97° |
| 2026-04-26 10:53 | 47.33929 | 8.41820 | 12537 ft | 357 kts | 81° |
| 2026-04-26 10:53 | 47.34783 | 8.45237 | 13360 ft | 361 kts | 56° |
| 2026-04-26 10:54 | 47.38826 | 8.49392 | 14999 ft | 365 kts | 10° |
| 2026-04-26 10:54 | 47.41352 | 8.49430 | 15813 ft | 365 kts | 347° |
| 2026-04-26 10:54 | 47.43706 | 8.48049 | 16566 ft | 368 kts | 329° |
| 2026-04-26 10:54 | 47.45965 | 8.46189 | 17329 ft | 374 kts | 335° |
| 2026-04-26 10:55 | 47.48432 | 8.44960 | 18165 ft | 378 kts | 346° |
| 2026-04-26 10:55 | 47.51050 | 8.44696 | 18870 ft | 386 kts | 4° |
| 2026-04-26 10:55 | 47.53664 | 8.45730 | 19458 ft | 396 kts | 24° |
| 2026-04-26 10:55 | 47.55929 | 8.48107 | 20074 ft | 405 kts | 44° |
| 2026-04-26 10:56 | 47.57546 | 8.51544 | 20693 ft | 412 kts | 64° |
| 2026-04-26 10:56 | 47.58428 | 8.55599 | 21338 ft | 418 kts | 81° |
| 2026-04-26 10:56 | 47.58395 | 8.59902 | 21950 ft | 422 kts | 101° |
| 2026-04-26 10:56 | 47.57416 | 8.63993 | 22594 ft | 423 kts | 120° |
| 2026-04-26 10:57 | 47.55604 | 8.67413 | 23207 ft | 423 kts | 140° |
| 2026-04-26 10:57 | 47.53156 | 8.69795 | 23800 ft | 422 kts | 159° |
| 2026-04-26 10:57 | 47.50337 | 8.70898 | 24276 ft | 420 kts | 177° |
| 2026-04-26 10:57 | 47.47413 | 8.71066 | 24778 ft | 422 kts | 178° |
| 2026-04-26 10:58 | 47.44541 | 8.72086 | 25264 ft | 430 kts | 159° |
| 2026-04-26 10:58 | 47.41978 | 8.74429 | 25755 ft | 438 kts | 141° |
| 2026-04-26 10:58 | 47.39986 | 8.77845 | 26234 ft | 445 kts | 123° |
| 2026-04-26 10:58 | 47.38751 | 8.82003 | 26671 ft | 452 kts | 105° |
| 2026-04-26 10:59 | 47.38362 | 8.86614 | 27115 ft | 457 kts | 89° |
| 2026-04-26 10:59 | 47.38885 | 8.91242 | 27566 ft | 460 kts | 71° |
| 2026-04-26 10:59 | 47.40212 | 8.95542 | 28021 ft | 462 kts | 62° |
| 2026-04-26 10:59 | 47.41422 | 8.99955 | 28450 ft | 467 kts | 76° |
| 2026-04-26 11:00 | 47.41922 | 9.04703 | 28884 ft | 470 kts | 86° |
| 2026-04-26 11:00 | 47.41928 | 9.09547 | 29304 ft | 474 kts | 94° |
| 2026-04-26 11:00 | 47.41623 | 9.14397 | 29748 ft | 476 kts | 98° |
| 2026-04-26 11:00 | 47.41081 | 9.19240 | 30184 ft | 479 kts | 104° |
| 2026-04-26 11:01 | 47.40500 | 9.24089 | 30592 ft | 482 kts | 93° |
| 2026-04-26 11:01 | 47.40778 | 9.29024 | 30955 ft | 486 kts | 77° |
| 2026-04-26 11:01 | 47.41943 | 9.33704 | 31308 ft | 487 kts | 60° |
| 2026-04-26 11:01 | 47.43909 | 9.37764 | 31645 ft | 488 kts | 45° |
| 2026-04-26 11:02 | 47.46407 | 9.41180 | 32047 ft | 488 kts | 39° |
| 2026-04-26 11:02 | 47.49052 | 9.44299 | 32561 ft | 483 kts | 29° |
| 2026-04-26 11:02 | 47.52085 | 9.46313 | 33076 ft | 476 kts | 13° |
| 2026-04-26 11:02 | 47.55286 | 9.47129 | 33594 ft | 469 kts | 2° |
| 2026-04-26 11:03 | 47.58529 | 9.47421 | 34103 ft | 466 kts | 356° |
| 2026-04-26 11:03 | 47.61742 | 9.47096 | 34549 ft | 461 kts | 351° |
| 2026-04-26 11:03 | 47.64937 | 9.46604 | 34928 ft | 462 kts | 351° |
| 2026-04-26 11:03 | 47.68146 | 9.46215 | 35293 ft | 463 kts | 353° |
| 2026-04-26 11:04 | 47.71367 | 9.46015 | 35700 ft | 463 kts | 355° |
| 2026-04-26 11:04 | 47.74588 | 9.45987 | 36094 ft | 463 kts | 357° |
| 2026-04-26 11:04 | 47.77810 | 9.46080 | 36477 ft | 463 kts | 358° |
| 2026-04-26 11:04 | 47.81027 | 9.46212 | 36847 ft | 462 kts | 358° |
| 2026-04-26 11:05 | 47.84246 | 9.46280 | 37235 ft | 462 kts | 357° |
| 2026-04-26 11:05 | 47.87463 | 9.46300 | 37655 ft | 460 kts | 357° |
| 2026-04-26 11:05 | 47.90622 | 9.46294 | 38023 ft | 459 kts | 356° |
| 2026-04-26 11:05 | 47.93817 | 9.46277 | 38205 ft | 461 kts | 356° |
| 2026-04-26 11:06 | 48.00243 | 9.46240 | 38224 ft | 461 kts | 356° |
| 2026-04-26 11:06 | 48.06664 | 9.46217 | 38230 ft | 461 kts | 357° |
| 2026-04-26 11:07 | 48.13096 | 9.46202 | 38223 ft | 461 kts | 357° |
| 2026-04-26 11:07 | 48.19508 | 9.46192 | 38229 ft | 461 kts | 357° |
| 2026-04-26 11:08 | 48.25883 | 9.46197 | 38223 ft | 461 kts | 357° |
| 2026-04-26 11:08 | 48.32296 | 9.46205 | 38222 ft | 461 kts | 357° |
| 2026-04-26 11:09 | 48.38725 | 9.46211 | 38219 ft | 462 kts | 357° |
| 2026-04-26 11:09 | 48.45158 | 9.46215 | 38219 ft | 462 kts | 357° |
| 2026-04-26 11:10 | 48.51595 | 9.46221 | 38215 ft | 462 kts | 357° |
| 2026-04-26 11:10 | 48.58022 | 9.46185 | 38218 ft | 462 kts | 356° |
| 2026-04-26 11:11 | 48.64453 | 9.46106 | 38214 ft | 462 kts | 356° |
| 2026-04-26 11:11 | 48.70883 | 9.46024 | 38230 ft | 462 kts | 357° |
| 2026-04-26 11:12 | 48.77314 | 9.46785 | 38226 ft | 465 kts | 5° |
| 2026-04-26 11:12 | 48.83659 | 9.48366 | 38230 ft | 466 kts | 7° |
| 2026-04-26 11:13 | 48.90042 | 9.50048 | 38238 ft | 466 kts | 7° |
| 2026-04-26 11:13 | 48.96445 | 9.51649 | 38248 ft | 465 kts | 6° |
| 2026-04-26 11:14 | 49.02836 | 9.53191 | 38255 ft | 465 kts | 6° |
| 2026-04-26 11:14 | 49.09238 | 9.54724 | 38258 ft | 465 kts | 6° |